Time;durP1;ratioP1;P1;durP2;ratioP2;P2;SDS_P1;SDS_P2;PMS_P1;PMS_P2;Temp;Humidity;BMP_temperature;BMP_pressure;BME280_temperature;BME280_humidity;BME280_pressure;Samples;Min_cycle;Max_cycle;Signal;HPM_P1;HPM_P2
2022/10/20 00:00:58;;;;;;;12.60;5.60;;;5.30;99.90;;;;;;5009060;28;20042;-43
2022/10/20 00:03:24;;;;;;;12.82;6.05;;;5.30;99.90;;;;;;5009284;28;20063;-44
2022/10/20 00:05:50;;;;;;;12.80;5.93;;;5.40;99.90;;;;;;5009093;28;20538;-44
2022/10/20 00:08:16;;;;;;;11.00;5.47;;;5.80;99.90;;;;;;5009363;28;20042;-44
2022/10/20 00:10:42;;;;;;;18.95;6.45;;;5.30;99.90;;;;;;5008651;28;20042;-43
2022/10/20 00:13:08;;;;;;;14.05;6.72;;;5.20;99.90;;;;;;5008544;28;20500;-44
2022/10/20 00:15:34;;;;;;;10.93;5.75;;;5.30;99.90;;;;;;5008671;28;20056;-44
2022/10/20 00:17:59;;;;;;;11.70;6.05;;;5.30;99.90;;;;;;5008438;28;20041;-44
2022/10/20 00:20:25;;;;;;;16.00;6.45;;;5.10;99.90;;;;;;5008694;28;20400;-45
2022/10/20 00:22:51;;;;;;;13.50;6.30;;;5.30;99.90;;;;;;5008434;28;20069;-43
2022/10/20 00:25:16;;;;;;;11.38;5.70;;;5.60;99.90;;;;;;5008071;28;20042;-44
2022/10/20 00:27:42;;;;;;;12.65;5.70;;;5.20;99.90;;;;;;5008107;28;20052;-44
2022/10/20 00:30:08;;;;;;;14.18;6.55;;;5.20;99.90;;;;;;5008034;28;20045;-43
2022/10/20 00:32:34;;;;;;;9.77;6.10;;;5.30;99.90;;;;;;5007806;28;20049;-44
2022/10/20 00:35:00;;;;;;;10.18;5.47;;;5.10;99.90;;;;;;5007587;28;20052;-44
2022/10/20 00:37:25;;;;;;;10.70;6.20;;;5.20;99.90;;;;;;5007883;28;20072;-43
2022/10/20 00:39:51;;;;;;;13.07;6.00;;;5.30;99.90;;;;;;5007599;28;20108;-44
2022/10/20 00:42:18;;;;;;;15.57;6.95;;;5.30;99.90;;;;;;5008134;28;20112;-44
2022/10/20 00:44:46;;;;;;;12.02;6.22;;;5.20;99.90;;;;;;5008026;28;20053;-43
2022/10/20 00:47:15;;;;;;;13.85;6.93;;;5.30;99.90;;;;;;5008838;28;20054;-44
2022/10/20 00:49:41;;;;;;;9.60;5.68;;;5.20;99.90;;;;;;5008563;28;20050;-44
2022/10/20 00:52:08;;;;;;;15.38;6.72;;;5.30;99.90;;;;;;5008222;28;20053;-46
2022/10/20 00:54:34;;;;;;;11.90;6.30;;;5.20;99.90;;;;;;5008197;28;20057;-44
2022/10/20 00:57:00;;;;;;;11.65;6.00;;;5.20;99.90;;;;;;5007949;28;20041;-43
2022/10/20 00:59:30;;;;;;;9.07;6.20;;;5.10;99.90;;;;;;5008135;28;20488;-44
2022/10/20 01:01:58;;;;;;;9.07;5.75;;;5.10;99.90;;;;;;5007778;28;20068;-44
2022/10/20 01:04:27;;;;;;;15.98;6.32;;;5.10;99.90;;;;;;5008040;28;20046;-43
2022/10/20 01:06:53;;;;;;;18.67;6.90;;;5.20;99.90;;;;;;5008342;28;20399;-45
2022/10/20 01:09:18;;;;;;;14.73;6.15;;;5.00;99.90;;;;;;5008171;28;20052;-43
2022/10/20 01:11:55;;;;;;;13.65;6.30;;;5.10;99.90;;;;;;5008034;28;20046;-44
2022/10/20 01:14:51;;;;;;;11.00;6.28;;;5.10;99.90;;;;;;5008151;28;20400;-44
2022/10/20 01:17:25;;;;;;;10.50;5.88;;;5.10;99.90;;;;;;5008187;28;20044;-43
2022/10/20 01:20:21;;;;;;;15.68;6.13;;;5.00;99.90;;;;;;5006964;28;20068;-43
2022/10/20 01:23:20;;;;;;;11.70;6.22;;;5.10;99.90;;;;;;5007821;28;20116;-44
2022/10/20 01:26:10;;;;;;;11.98;5.95;;;5.00;99.90;;;;;;5007630;28;20077;-44
2022/10/20 01:28:44;;;;;;;13.00;6.25;;;5.00;99.90;;;;;;5008153;28;20441;-43
2022/10/20 01:31:37;;;;;;;10.55;6.70;;;5.40;99.90;;;;;;5007670;28;20049;-44
2022/10/20 01:34:03;;;;;;;13.10;7.30;;;4.90;99.90;;;;;;5007581;28;20084;-45
2022/10/20 01:36:39;;;;;;;14.48;6.72;;;4.70;99.90;;;;;;5007904;28;20050;-43
2022/10/20 01:39:23;;;;;;;13.77;6.47;;;4.80;99.90;;;;;;5007916;28;20589;-43
2022/10/20 01:41:53;;;;;;;12.48;6.43;;;4.70;99.90;;;;;;5007758;28;20052;-43
2022/10/20 01:44:21;;;;;;;9.00;6.35;;;4.70;99.90;;;;;;5007631;28;20034;-43
2022/10/20 01:46:47;;;;;;;12.15;6.65;;;4.70;99.90;;;;;;5007654;28;20052;-44
2022/10/20 01:49:14;;;;;;;13.05;6.18;;;4.80;99.90;;;;;;5007850;28;20034;-45
2022/10/20 01:51:39;;;;;;;13.20;6.53;;;4.70;99.90;;;;;;5007767;28;20061;-44
2022/10/20 01:54:05;;;;;;;10.82;6.38;;;5.60;99.90;;;;;;5007205;28;20041;-44
2022/10/20 01:57:06;;;;;;;13.38;6.95;;;4.80;99.90;;;;;;5007388;28;20042;-44
2022/10/20 01:59:45;;;;;;;9.75;5.55;;;4.80;99.90;;;;;;5007098;28;20041;-44
2022/10/20 02:02:31;;;;;;;11.63;6.43;;;4.80;99.90;;;;;;5007764;28;20349;-44
2022/10/20 02:05:27;;;;;;;14.85;6.85;;;4.80;99.90;;;;;;5006765;28;20113;-44
2022/10/20 02:08:15;;;;;;;13.48;7.10;;;4.90;99.90;;;;;;5007007;28;20120;-43
2022/10/20 02:10:51;;;;;;;13.00;5.95;;;4.90;99.90;;;;;;5005443;28;20112;-44
2022/10/20 02:13:19;;;;;;;13.07;6.18;;;4.80;99.90;;;;;;5007699;28;20145;-44
2022/10/20 02:15:52;;;;;;;10.88;6.95;;;4.80;99.90;;;;;;5007158;28;20038;-44
2022/10/20 02:18:23;;;;;;;11.82;7.05;;;4.80;99.90;;;;;;5006885;28;20050;-44
2022/10/20 02:20:53;;;;;;;12.25;7.68;;;4.90;99.90;;;;;;5007015;28;20053;-43
2022/10/20 02:23:19;;;;;;;10.15;7.13;;;4.80;99.90;;;;;;5005510;28;20056;-43
2022/10/20 02:25:51;;;;;;;11.88;6.90;;;4.90;99.90;;;;;;5006958;28;20041;-44
2022/10/20 02:28:18;;;;;;;15.57;7.72;;;5.00;99.90;;;;;;5006943;28;20545;-45
2022/10/20 02:30:45;;;;;;;13.95;8.20;;;4.90;99.90;;;;;;5007071;28;20057;-44
2022/10/20 02:33:12;;;;;;;14.48;7.53;;;4.80;99.90;;;;;;5006821;28;20758;-45
2022/10/20 02:35:41;;;;;;;13.07;7.78;;;4.90;99.90;;;;;;5007446;28;20085;-43
2022/10/20 02:38:07;;;;;;;15.45;8.18;;;5.00;99.90;;;;;;5006950;28;20041;-45
2022/10/20 02:40:33;;;;;;;11.73;7.35;;;4.90;99.90;;;;;;5006806;28;20058;-43
2022/10/20 02:42:58;;;;;;;16.38;8.63;;;5.00;99.90;;;;;;5006830;28;20046;-43
2022/10/20 02:45:24;;;;;;;14.10;7.72;;;4.90;99.90;;;;;;5006846;28;20116;-43
2022/10/20 02:47:50;;;;;;;14.82;8.43;;;5.00;99.90;;;;;;5006653;28;20381;-43
2022/10/20 02:50:16;;;;;;;12.82;7.97;;;4.80;99.90;;;;;;5006400;28;20050;-45
2022/10/20 02:52:41;;;;;;;15.55;8.65;;;5.00;99.90;;;;;;5006840;28;20339;-44
2022/10/20 02:55:07;;;;;;;13.80;7.63;;;5.00;99.90;;;;;;5006533;28;20046;-44
2022/10/20 02:57:33;;;;;;;14.77;9.13;;;5.00;99.90;;;;;;5006567;28;20125;-45
2022/10/20 02:59:58;;;;;;;13.48;8.38;;;4.90;99.90;;;;;;5006472;28;20519;-44
2022/10/20 03:02:24;;;;;;;13.70;8.93;;;4.90;99.90;;;;;;5006501;28;20081;-43
2022/10/20 03:04:50;;;;;;;14.93;9.27;;;4.90;99.90;;;;;;5006966;28;20120;-44
2022/10/20 03:07:15;;;;;;;14.38;7.93;;;4.90;99.90;;;;;;5006886;28;20065;-43
2022/10/20 03:09:42;;;;;;;18.20;8.75;;;4.90;99.90;;;;;;5006652;28;20046;-43
2022/10/20 03:12:08;;;;;;;13.75;8.70;;;6.00;99.90;;;;;;5006784;28;20057;-43
2022/10/20 03:14:34;;;;;;;15.57;8.20;;;4.90;99.90;;;;;;5006763;28;20492;-46
2022/10/20 03:16:59;;;;;;;15.57;9.52;;;4.90;99.90;;;;;;5009424;28;20033;-44
2022/10/20 03:19:25;;;;;;;17.33;10.02;;;4.90;99.90;;;;;;5009959;28;20058;-43
2022/10/20 03:21:51;;;;;;;18.17;8.85;;;4.90;99.90;;;;;;5009132;28;20053;-43
2022/10/20 03:24:17;;;;;;;16.85;9.32;;;4.90;99.90;;;;;;5009991;28;20050;-43
2022/10/20 03:26:42;;;;;;;18.80;9.80;;;4.90;99.90;;;;;;5010266;28;20587;-43
2022/10/20 03:29:08;;;;;;;17.70;10.38;;;4.80;99.90;;;;;;5009806;28;20571;-43
2022/10/20 03:31:34;;;;;;;19.30;10.18;;;4.80;99.90;;;;;;5009652;28;20050;-44
2022/10/20 03:33:59;;;;;;;16.42;10.23;;;4.80;99.90;;;;;;5009870;28;20045;-44
2022/10/20 03:36:25;;;;;;;20.08;10.40;;;4.80;99.90;;;;;;5009755;28;20057;-44
2022/10/20 03:38:50;;;;;;;18.17;10.25;;;4.80;99.90;;;;;;5009741;28;20042;-43
2022/10/20 03:41:16;;;;;;;15.20;10.45;;;4.80;99.90;;;;;;5009503;28;20034;-44
2022/10/20 03:43:42;;;;;;;17.40;10.70;;;4.80;99.90;;;;;;5009491;28;20072;-44
2022/10/20 03:46:09;;;;;;;21.40;11.68;;;4.80;99.90;;;;;;5009593;28;20042;-44
2022/10/20 03:48:36;;;;;;;15.27;10.55;;;4.80;99.90;;;;;;5009745;28;20061;-44
2022/10/20 03:51:03;;;;;;;18.00;11.75;;;4.80;99.90;;;;;;5009806;28;20038;-43
2022/10/20 03:53:29;;;;;;;16.05;12.00;;;4.90;99.90;;;;;;5009865;28;20496;-45
2022/10/20 03:55:54;;;;;;;20.58;12.52;;;4.80;99.90;;;;;;5009446;28;20050;-44
2022/10/20 03:58:20;;;;;;;18.05;12.52;;;4.80;99.90;;;;;;5009315;28;20053;-44
2022/10/20 04:00:46;;;;;;;19.95;10.75;;;5.10;99.90;;;;;;5009046;28;20099;-44
2022/10/20 04:03:12;;;;;;;18.65;11.55;;;5.00;99.90;;;;;;5008687;28;20404;-43
2022/10/20 04:05:38;;;;;;;19.95;12.40;;;4.80;99.90;;;;;;5009152;28;20121;-44
2022/10/20 04:08:04;;;;;;;24.33;13.93;;;4.80;99.90;;;;;;5009024;28;20117;-44
2022/10/20 04:10:30;;;;;;;19.50;12.05;;;4.90;99.90;;;;;;5009415;28;20099;-43
2022/10/20 04:13:00;;;;;;;21.30;13.13;;;4.90;99.90;;;;;;5009300;28;20099;-45
2022/10/20 04:15:26;;;;;;;17.58;12.43;;;4.90;99.90;;;;;;5009770;28;20050;-45
2022/10/20 04:17:52;;;;;;;19.98;12.77;;;5.10;99.90;;;;;;5009046;28;20447;-43
2022/10/20 04:20:18;;;;;;;19.85;13.10;;;5.00;99.90;;;;;;5008869;28;20053;-44
2022/10/20 04:22:43;;;;;;;22.95;14.70;;;5.00;99.90;;;;;;5008957;28;20549;-43
2022/10/20 04:25:11;;;;;;;21.58;14.13;;;5.00;99.90;;;;;;5008655;28;20092;-43
2022/10/20 04:27:37;;;;;;;23.30;13.65;;;4.90;99.90;;;;;;5007702;28;20050;-43
2022/10/20 04:30:03;;;;;;;19.95;14.82;;;4.90;99.90;;;;;;5008453;28;20590;-44
2022/10/20 04:32:29;;;;;;;18.23;12.98;;;5.00;99.90;;;;;;5008559;28;20049;-44
2022/10/20 04:34:54;;;;;;;19.58;13.82;;;4.90;99.90;;;;;;5008737;28;20049;-43
2022/10/20 04:37:20;;;;;;;24.35;14.88;;;4.90;99.90;;;;;;5008528;28;20054;-44
2022/10/20 04:39:46;;;;;;;19.83;13.90;;;5.00;99.90;;;;;;5008670;28;20121;-44
2022/10/20 04:42:11;;;;;;;19.58;12.68;;;4.80;99.90;;;;;;5008192;28;20038;-43
2022/10/20 04:44:37;;;;;;;22.92;14.75;;;4.90;99.90;;;;;;5008905;28;20049;-43
2022/10/20 04:47:03;;;;;;;19.70;13.38;;;6.10;99.90;;;;;;5009230;28;20046;-43
2022/10/20 04:49:28;;;;;;;21.00;13.75;;;4.80;99.90;;;;;;5008645;28;20046;-44
2022/10/20 04:51:54;;;;;;;25.02;14.73;;;4.90;99.90;;;;;;5008420;28;20045;-44
2022/10/20 04:54:20;;;;;;;21.92;13.88;;;5.30;99.90;;;;;;5008270;28;20046;-43
2022/10/20 04:56:45;;;;;;;23.85;13.93;;;4.80;99.90;;;;;;5008180;28;20046;-44
2022/10/20 04:59:11;;;;;;;23.88;16.17;;;5.60;99.90;;;;;;5008081;28;20053;-44
2022/10/20 05:01:37;;;;;;;24.23;16.10;;;4.80;99.90;;;;;;5008412;28;20077;-44
2022/10/20 05:04:03;;;;;;;24.40;15.05;;;5.30;99.90;;;;;;5008315;28;20346;-44
2022/10/20 05:06:31;;;;;;;24.60;15.65;;;4.90;99.90;;;;;;5007697;28;20447;-44
2022/10/20 05:09:02;;;;;;;22.25;15.45;;;4.80;99.90;;;;;;5008265;28;20054;-43
2022/10/20 05:11:29;;;;;;;24.43;15.37;;;4.80;99.90;;;;;;5007930;28;20049;-43
2022/10/20 05:13:55;;;;;;;25.17;15.70;;;4.80;99.90;;;;;;5007927;28;20507;-43
2022/10/20 05:16:22;;;;;;;25.42;15.90;;;4.70;99.90;;;;;;5007740;28;20042;-44
2022/10/20 05:18:47;;;;;;;23.65;15.55;;;4.80;99.90;;;;;;5007671;28;20112;-43
2022/10/20 05:21:20;;;;;;;24.27;15.35;;;4.70;99.90;;;;;;5008055;28;20049;-44
2022/10/20 05:23:45;;;;;;;21.67;15.30;;;4.80;99.90;;;;;;5008277;28;20153;-43
2022/10/20 05:26:15;;;;;;;23.75;16.20;;;4.80;99.90;;;;;;5007684;28;20117;-43
2022/10/20 05:28:49;;;;;;;23.13;16.40;;;4.90;99.90;;;;;;5007656;28;20555;-44
2022/10/20 05:31:16;;;;;;;24.75;16.27;;;4.80;99.90;;;;;;5007610;28;20092;-43
2022/10/20 05:33:47;;;;;;;28.75;18.92;;;4.80;99.90;;;;;;5006364;28;20559;-44
2022/10/20 05:36:15;;;;;;;26.90;17.35;;;4.80;99.90;;;;;;5007525;28;20029;-43
2022/10/20 05:38:41;;;;;;;25.17;16.25;;;4.80;99.90;;;;;;5006929;28;20081;-44
2022/10/20 05:41:11;;;;;;;22.10;16.63;;;4.70;99.90;;;;;;5007260;28;20076;-44
2022/10/20 05:43:37;;;;;;;22.70;16.75;;;4.90;99.90;;;;;;5007275;28;20045;-43
2022/10/20 05:46:04;;;;;;;26.85;17.65;;;4.80;99.90;;;;;;5007406;28;20100;-43
2022/10/20 05:48:30;;;;;;;25.70;16.75;;;4.90;99.90;;;;;;5007254;28;20482;-43
2022/10/20 05:51:07;;;;;;;23.70;16.38;;;4.70;99.90;;;;;;5007857;28;20104;-43
2022/10/20 05:53:32;;;;;;;23.02;16.30;;;4.80;99.90;;;;;;5007044;28;20038;-43
2022/10/20 05:56:03;;;;;;;26.55;17.80;;;4.70;99.90;;;;;;5007597;28;20046;-43
2022/10/20 05:58:29;;;;;;;30.67;17.23;;;4.80;99.90;;;;;;5006983;28;20489;-44
2022/10/20 06:01:09;;;;;;;28.15;18.27;;;4.70;99.90;;;;;;5007160;28;20042;-43
2022/10/20 06:03:35;;;;;;;25.20;17.63;;;4.80;99.90;;;;;;5007112;28;20045;-45
2022/10/20 06:06:01;;;;;;;24.25;16.65;;;4.70;99.90;;;;;;5007224;28;20042;-43
2022/10/20 06:08:31;;;;;;;23.90;16.33;;;4.80;99.90;;;;;;5006884;28;20472;-43
2022/10/20 06:11:02;;;;;;;26.58;17.50;;;4.80;99.90;;;;;;5007215;28;20510;-45
2022/10/20 06:13:29;;;;;;;26.05;18.00;;;4.80;99.90;;;;;;5007029;28;20089;-44
2022/10/20 06:16:04;;;;;;;28.90;16.88;;;4.60;99.90;;;;;;5006975;28;20488;-44
2022/10/20 06:18:30;;;;;;;28.15;17.42;;;4.80;99.90;;;;;;5006358;28;20060;-43
2022/10/20 06:21:01;;;;;;;26.23;17.25;;;4.80;99.90;;;;;;5007062;28;20046;-43
2022/10/20 06:23:27;;;;;;;29.27;17.95;;;4.90;99.90;;;;;;5006694;28;20081;-43
2022/10/20 06:25:52;;;;;;;25.60;16.17;;;4.80;99.90;;;;;;5006502;28;20440;-43
2022/10/20 06:28:18;;;;;;;24.05;16.00;;;4.80;99.90;;;;;;5006908;28;20120;-43
2022/10/20 06:30:44;;;;;;;28.27;17.70;;;4.90;99.90;;;;;;5007084;28;20042;-44
2022/10/20 06:33:11;;;;;;;30.55;17.23;;;4.90;99.90;;;;;;5006583;28;20042;-43
2022/10/20 06:35:37;;;;;;;24.75;17.70;;;4.80;99.90;;;;;;5006402;28;20045;-44
2022/10/20 06:38:03;;;;;;;29.92;17.95;;;4.90;99.90;;;;;;5006582;28;20046;-44
2022/10/20 06:40:28;;;;;;;25.15;16.65;;;4.90;99.90;;;;;;5006657;28;20034;-43
2022/10/20 06:42:54;;;;;;;27.55;16.67;;;5.10;99.90;;;;;;5006850;28;20870;-44
2022/10/20 06:45:20;;;;;;;25.75;15.73;;;5.10;99.90;;;;;;5006569;28;20061;-43
2022/10/20 06:47:45;;;;;;;27.77;17.38;;;5.10;99.90;;;;;;5006721;28;20061;-43
2022/10/20 06:50:11;;;;;;;27.33;18.20;;;5.20;99.90;;;;;;5007098;28;20052;-45
2022/10/20 06:52:36;;;;;;;25.70;17.42;;;5.20;99.90;;;;;;5010458;28;20068;-43
2022/10/20 06:55:02;;;;;;;25.20;17.33;;;5.20;99.90;;;;;;5010741;28;20045;-43
2022/10/20 06:57:31;;;;;;;25.88;16.80;;;5.40;99.90;;;;;;5010373;28;20049;-44
2022/10/20 06:59:56;;;;;;;28.10;16.52;;;5.50;99.90;;;;;;5009302;28;20050;-43
2022/10/20 07:02:22;;;;;;;22.75;16.13;;;5.30;99.90;;;;;;5010738;28;20050;-45
2022/10/20 07:04:51;;;;;;;24.33;17.83;;;5.40;99.90;;;;;;5010594;28;20131;-44
2022/10/20 07:07:16;;;;;;;22.50;17.00;;;5.60;99.90;;;;;;5010384;28;20100;-44
2022/10/20 07:09:42;;;;;;;25.83;16.23;;;5.60;99.90;;;;;;5010154;28;20050;-44
2022/10/20 07:12:08;;;;;;;23.90;14.95;;;5.80;99.90;;;;;;5010329;28;20050;-45
2022/10/20 07:14:36;;;;;;;23.13;15.90;;;5.80;99.90;;;;;;5010015;28;20065;-43
2022/10/20 07:17:02;;;;;;;22.77;14.65;;;5.90;99.90;;;;;;5009689;28;20052;-43
2022/10/20 07:19:29;;;;;;;23.13;15.60;;;6.00;99.90;;;;;;5009703;28;20412;-44
2022/10/20 07:21:54;;;;;;;22.77;15.07;;;6.10;99.90;;;;;;5010018;28;20052;-43
2022/10/20 07:24:20;;;;;;;22.40;15.55;;;6.20;99.90;;;;;;5010398;28;20460;-44
2022/10/20 07:26:45;;;;;;;19.45;14.38;;;7.50;99.90;;;;;;5009753;28;20088;-44
2022/10/20 07:29:12;;;;;;;20.65;15.52;;;6.20;99.90;;;;;;5009695;28;20052;-43
2022/10/20 07:31:44;;;;;;;21.50;14.93;;;6.50;99.90;;;;;;5009791;28;20045;-43
2022/10/20 07:34:11;;;;;;;21.97;14.17;;;6.60;99.90;;;;;;5010046;28;20120;-44
2022/10/20 07:36:39;;;;;;;19.92;14.60;;;6.60;99.90;;;;;;5008346;28;20667;-43
2022/10/20 07:39:05;;;;;;;22.08;14.30;;;6.60;99.90;;;;;;5010071;28;20049;-43
2022/10/20 07:41:32;;;;;;;20.58;13.90;;;6.60;99.90;;;;;;5009523;28;20050;-44
2022/10/20 07:43:58;;;;;;;19.50;13.65;;;6.60;99.90;;;;;;5010168;28;20045;-44
2022/10/20 07:46:24;;;;;;;16.85;13.15;;;6.70;99.90;;;;;;5009903;28;20046;-44
2022/10/20 07:48:50;;;;;;;17.38;11.85;;;6.60;99.90;;;;;;5009259;28;20135;-44
2022/10/20 07:51:23;;;;;;;19.05;12.85;;;6.80;99.90;;;;;;5009048;28;20085;-44
2022/10/20 07:53:58;;;;;;;17.13;12.32;;;6.80;99.90;;;;;;5009209;28;20050;-44
2022/10/20 07:56:27;;;;;;;19.80;11.77;;;6.90;99.90;;;;;;5009297;28;20854;-45
2022/10/20 07:58:53;;;;;;;15.73;11.82;;;6.90;99.90;;;;;;5009328;28;20037;-44
2022/10/20 08:01:19;;;;;;;15.23;11.98;;;7.70;99.90;;;;;;5009064;28;20037;-45
2022/10/20 08:03:45;;;;;;;16.80;11.77;;;6.90;99.90;;;;;;5007624;28;20053;-44
2022/10/20 08:06:10;;;;;;;14.15;11.55;;;7.10;99.90;;;;;;5008951;28;20038;-44
2022/10/20 08:08:36;;;;;;;19.10;11.95;;;7.20;99.90;;;;;;5009054;28;20046;-44
2022/10/20 08:11:02;;;;;;;14.68;11.20;;;7.30;99.90;;;;;;5009046;28;20502;-43
2022/10/20 08:13:28;;;;;;;16.20;12.02;;;7.30;99.90;;;;;;5007184;28;20054;-45
2022/10/20 08:15:54;;;;;;;14.02;11.70;;;7.60;99.90;;;;;;5008973;28;20057;-44
2022/10/20 08:18:21;;;;;;;22.75;12.23;;;7.50;99.90;;;;;;5008708;28;20054;-43
2022/10/20 08:20:46;;;;;;;16.67;10.90;;;7.60;99.90;;;;;;5008570;28;20089;-44
2022/10/20 08:23:13;;;;;;;16.30;11.00;;;7.90;99.90;;;;;;5009717;28;20471;-43
2022/10/20 08:25:39;;;;;;;15.93;10.63;;;7.90;99.90;;;;;;5010752;28;20112;-44
2022/10/20 08:28:06;;;;;;;14.57;10.68;;;8.00;99.90;;;;;;5010991;28;20049;-44
2022/10/20 08:30:32;;;;;;;15.05;10.48;;;8.20;99.90;;;;;;5008944;28;20048;-44
2022/10/20 08:32:58;;;;;;;12.68;10.02;;;9.10;99.90;;;;;;5008403;28;20492;-44
2022/10/20 08:35:24;;;;;;;12.65;8.90;;;8.50;99.90;;;;;;5010858;28;20050;-43
2022/10/20 08:37:50;;;;;;;14.52;9.63;;;8.60;99.90;;;;;;5012422;28;20050;-43
2022/10/20 08:40:22;;;;;;;13.63;8.75;;;8.60;99.90;;;;;;5013078;28;20034;-43
2022/10/20 08:42:49;;;;;;;13.20;9.55;;;8.60;99.90;;;;;;5012814;28;20041;-43
2022/10/20 08:45:22;;;;;;;12.00;9.50;;;9.20;99.90;;;;;;5012305;28;20045;-44
2022/10/20 08:47:50;;;;;;;13.43;9.77;;;9.10;99.90;;;;;;5012510;28;20107;-43
2022/10/20 08:50:17;;;;;;;12.43;9.85;;;8.80;99.90;;;;;;5008714;28;20057;-43
2022/10/20 08:52:44;;;;;;;13.30;9.65;;;9.50;99.90;;;;;;5008998;28;20050;-46
2022/10/20 08:55:31;;;;;;;12.68;9.00;;;9.40;99.90;;;;;;5008779;28;20042;-44
2022/10/20 08:58:34;;;;;;;16.15;9.30;;;9.50;99.90;;;;;;5008949;28;20161;-45
2022/10/20 09:01:01;;;;;;;12.00;8.40;;;9.10;99.90;;;;;;5004087;28;20049;-44
2022/10/20 09:03:29;;;;;;;10.40;8.65;;;9.80;99.90;;;;;;5008137;28;20046;-44
2022/10/20 09:06:06;;;;;;;10.93;8.30;;;9.20;99.90;;;;;;5007906;28;20084;-47
2022/10/20 09:08:36;;;;;;;13.68;8.40;;;10.20;99.90;;;;;;5007428;28;20038;-45
2022/10/20 09:11:03;;;;;;;9.77;7.82;;;9.70;99.90;;;;;;5008126;28;20046;-44
2022/10/20 09:13:32;;;;;;;9.57;8.45;;;9.50;99.90;;;;;;5008099;28;20113;-44
2022/10/20 09:16:17;;;;;;;14.25;8.63;;;9.60;99.90;;;;;;5007863;28;20057;-44
2022/10/20 09:18:42;;;;;;;12.13;8.70;;;10.20;99.90;;;;;;5003776;28;20548;-44
2022/10/20 09:21:16;;;;;;;13.10;8.63;;;10.20;99.90;;;;;;5005894;28;20132;-44
2022/10/20 09:23:45;;;;;;;11.30;7.70;;;10.50;99.90;;;;;;5006459;28;20042;-43
2022/10/20 09:26:14;;;;;;;9.82;7.45;;;10.00;99.90;;;;;;5008506;28;20041;-45
2022/10/20 09:28:40;;;;;;;12.40;7.90;;;10.70;99.90;;;;;;5008170;28;20048;-44
2022/10/20 09:31:21;;;;;;;9.10;6.75;;;11.00;99.90;;;;;;5008150;28;20041;-44
2022/10/20 09:33:47;;;;;;;12.68;7.43;;;10.90;99.90;;;;;;5008009;28;20045;-47
2022/10/20 09:36:15;;;;;;;9.45;7.28;;;10.90;99.90;;;;;;5008363;28;20155;-45
2022/10/20 09:38:45;;;;;;;9.25;6.80;;;10.90;99.90;;;;;;5008221;28;20385;-44
2022/10/20 09:41:22;;;;;;;9.27;6.65;;;10.30;99.90;;;;;;5008204;28;20171;-46
2022/10/20 09:43:53;;;;;;;8.50;6.43;;;10.40;99.90;;;;;;5008222;28;20048;-44
2022/10/20 09:46:28;;;;;;;8.30;6.88;;;10.50;99.90;;;;;;5008424;28;20462;-44
2022/10/20 09:48:54;;;;;;;10.60;6.63;;;10.60;99.90;;;;;;5007758;28;20090;-44
2022/10/20 09:51:25;;;;;;;10.25;6.28;;;10.70;99.90;;;;;;5007551;28;20081;-45
2022/10/20 09:53:56;;;;;;;10.60;6.72;;;10.80;99.90;;;;;;5007316;28;20049;-44
2022/10/20 09:56:42;;;;;;;9.65;6.43;;;10.90;99.90;;;;;;5007787;28;20444;-45
2022/10/20 09:59:39;;;;;;;8.70;6.55;;;10.90;99.90;;;;;;5007714;28;20381;-45
2022/10/20 10:02:13;;;;;;;10.23;6.53;;;10.90;99.90;;;;;;5002959;28;20054;-45
2022/10/20 10:04:45;;;;;;;9.38;6.50;;;11.00;99.90;;;;;;5007303;28;20038;-45
2022/10/20 10:07:30;;;;;;;8.60;6.32;;;11.00;99.90;;;;;;5007763;28;20602;-45
2022/10/20 10:09:59;;;;;;;7.38;5.85;;;11.10;99.90;;;;;;5007113;28;20049;-44
2022/10/20 10:12:27;;;;;;;8.35;6.00;;;11.10;99.90;;;;;;5007518;28;20148;-44
2022/10/20 10:14:55;;;;;;;7.43;5.60;;;11.00;99.90;;;;;;5007430;28;20096;-46
2022/10/20 10:17:41;;;;;;;10.15;5.97;;;11.00;99.90;;;;;;5007503;28;20156;-45
2022/10/20 10:20:31;;;;;;;10.48;6.03;;;11.20;99.90;;;;;;5006726;28;20050;-46
2022/10/20 10:23:19;;;;;;;8.63;6.18;;;11.30;99.90;;;;;;5007335;28;20392;-45
2022/10/20 10:25:45;;;;;;;8.73;6.18;;;11.30;99.90;;;;;;5002697;28;20046;-45
2022/10/20 10:28:56;;;;;;;10.40;6.53;;;11.30;99.90;;;;;;5007295;28;20046;-45
2022/10/20 10:31:23;;;;;;;7.65;5.80;;;11.50;99.90;;;;;;4984561;28;20073;-45
2022/10/20 10:34:11;;;;;;;10.18;5.80;;;11.90;99.90;;;;;;4984448;28;20109;-44
2022/10/20 10:36:37;;;;;;;9.52;6.82;;;11.50;99.90;;;;;;4985772;28;20050;-44
2022/10/20 10:39:09;;;;;;;8.32;6.72;;;12.10;99.90;;;;;;5007103;28;20037;-44
2022/10/20 10:41:49;;;;;;;8.50;7.32;;;11.80;99.90;;;;;;5007305;28;20575;-44
2022/10/20 10:44:25;;;;;;;12.02;7.57;;;11.90;99.90;;;;;;5006776;28;20045;-44
2022/10/20 10:46:59;;;;;;;8.77;6.00;;;12.10;99.90;;;;;;5006748;28;20053;-44
2022/10/20 10:49:43;;;;;;;7.93;6.28;;;12.30;99.90;;;;;;5006783;28;20038;-45
2022/10/20 10:52:20;;;;;;;7.72;6.00;;;12.40;99.90;;;;;;5006265;28;20046;-45
2022/10/20 10:55:04;;;;;;;9.30;6.45;;;12.50;99.90;;;;;;5006585;28;20452;-44
2022/10/20 10:57:50;;;;;;;8.98;5.68;;;12.70;99.90;;;;;;5006713;28;20081;-44
2022/10/20 11:00:42;;;;;;;10.05;5.72;;;12.80;99.90;;;;;;5006898;28;20100;-45
2022/10/20 11:03:10;;;;;;;6.63;5.60;;;12.90;99.90;;;;;;4989634;28;20488;-45
2022/10/20 11:06:16;;;;;;;7.40;5.80;;;13.00;99.90;;;;;;5004837;28;20319;-44
2022/10/20 11:08:54;;;;;;;8.88;5.70;;;13.00;99.90;;;;;;5007021;28;20176;-44
2022/10/20 11:11:40;;;;;;;8.77;5.50;;;13.10;99.90;;;;;;5006201;28;20535;-44
2022/10/20 11:14:40;;;;;;;7.72;5.45;;;13.10;99.90;;;;;;5006861;28;20149;-46
2022/10/20 11:28:49;;;;;;;8.43;6.32;;;13.00;99.90;;;;;;5140075;27;20363;-45
2022/10/20 11:31:38;;;;;;;7.45;5.88;;;13.10;99.90;;;;;;5105171;28;20186;-40
2022/10/20 11:34:25;;;;;;;7.38;6.15;;;13.00;99.90;;;;;;5094266;28;20067;-42
2022/10/20 11:37:20;;;;;;;9.15;5.30;;;13.10;99.90;;;;;;5090705;28;20386;-41
2022/10/20 11:39:58;;;;;;;6.82;6.00;;;13.20;99.90;;;;;;5078290;28;20075;-43
2022/10/20 11:42:47;;;;;;;11.45;7.13;;;13.30;99.90;;;;;;5100326;28;20406;-40
2022/10/20 11:45:39;;;;;;;8.57;5.88;;;13.10;99.90;;;;;;5081459;28;20583;-41
2022/10/20 11:48:30;;;;;;;7.53;6.18;;;13.20;99.90;;;;;;5080295;28;20059;-40
2022/10/20 11:51:31;;;;;;;8.80;6.10;;;13.10;99.90;;;;;;5083386;28;20048;-40
2022/10/20 11:54:09;;;;;;;8.82;6.53;;;13.00;99.90;;;;;;5060228;28;20040;-40
2022/10/20 11:57:01;;;;;;;7.85;6.28;;;12.90;99.90;;;;;;5079860;28;20219;-41
2022/10/20 11:59:46;;;;;;;;;;;12.90;99.90;;;;;;5085365;28;20557;-41
2022/10/20 12:02:53;;;;;;;9.45;7.20;;;12.90;99.90;;;;;;5080757;28;19951;-41
2022/10/20 12:05:45;;;;;;;10.15;7.65;;;12.90;99.90;;;;;;5079095;28;20040;-40
2022/10/20 12:08:26;;;;;;;7.95;7.15;;;12.90;99.90;;;;;;5072516;28;20055;-40
2022/10/20 12:11:25;;;;;;;10.77;6.78;;;12.90;99.90;;;;;;5082287;28;20044;-42
2022/10/20 12:14:13;;;;;;;8.48;7.03;;;12.90;99.90;;;;;;5081568;28;20040;-40
2022/10/20 12:16:51;;;;;;;10.15;6.85;;;13.00;99.90;;;;;;5081837;28;20038;-41
2022/10/20 12:19:20;;;;;;;11.82;6.70;;;13.10;99.90;;;;;;5062888;28;20049;-41
2022/10/20 12:22:05;;;;;;;10.48;7.28;;;12.90;99.90;;;;;;5061894;28;20048;-41
2022/10/20 12:25:02;;;;;;;11.13;7.07;;;13.00;99.90;;;;;;5060470;28;20544;-41
2022/10/20 12:27:28;;;;;;;11.45;7.82;;;13.00;99.90;;;;;;5059047;28;20053;-40
2022/10/20 12:30:00;;;;;;;12.15;8.57;;;13.00;99.90;;;;;;5047864;28;20032;-41
2022/10/20 12:32:51;;;;;;;10.87;7.30;;;12.90;99.90;;;;;;5046918;28;20127;-40
2022/10/20 12:35:16;;;;;;;10.35;7.55;;;12.90;99.90;;;;;;5048789;28;20045;-42
2022/10/20 12:37:54;;;;;;;13.85;8.30;;;13.10;99.90;;;;;;5048053;28;20033;-41
2022/10/20 12:40:27;;;;;;;10.02;7.78;;;12.90;99.90;;;;;;5047882;28;20037;-41
2022/10/20 12:42:54;;;;;;;8.85;7.63;;;12.90;99.90;;;;;;5048194;28;20383;-40
2022/10/20 12:45:26;;;;;;;9.32;7.05;;;12.80;99.90;;;;;;5047329;28;20040;-41
2022/10/20 12:47:57;;;;;;;8.75;7.68;;;12.80;99.90;;;;;;5047424;28;20142;-42
2022/10/20 12:50:42;;;;;;;10.32;8.25;;;12.70;99.90;;;;;;5048313;28;20040;-41
2022/10/20 12:53:17;;;;;;;13.07;8.45;;;12.60;99.90;;;;;;5028012;28;20033;-44
2022/10/20 12:55:58;;;;;;;10.93;8.50;;;12.80;99.90;;;;;;5032787;28;20136;-53
2022/10/20 12:58:32;;;;;;;12.27;9.93;;;12.50;99.90;;;;;;5040034;28;20088;-47
2022/10/20 13:01:00;;;;;;;12.52;10.52;;;12.20;99.90;;;;;;5040102;28;20041;-44
2022/10/20 13:03:42;;;;;;;11.27;9.82;;;12.20;99.90;;;;;;5040068;28;20041;-44
2022/10/20 13:06:25;;;;;;;13.48;10.68;;;12.00;99.90;;;;;;5039376;28;20037;-44
2022/10/20 13:09:03;;;;;;;13.73;10.70;;;11.80;99.90;;;;;;5040423;28;20212;-43
2022/10/20 13:11:34;;;;;;;15.10;11.20;;;11.80;99.90;;;;;;5039062;28;20049;-43
2022/10/20 13:14:12;;;;;;;18.08;11.90;;;11.60;99.90;;;;;;5039337;28;20040;-44